Time;durP1;ratioP1;P1;durP2;ratioP2;P2;SDS_P1;SDS_P2;PMS_P1;PMS_P2;Temp;Humidity;BMP_temperature;BMP_pressure;BME280_temperature;BME280_humidity;BME280_pressure;Samples;Min_cycle;Max_cycle;Signal;HPM_P1;HPM_P2
2022/08/20 00:01:57;;;;;;;3.47;2.37;;;;;;;24.64;58.62;100243.06;5092922;28;20181;-65
2022/08/20 00:04:23;;;;;;;3.10;2.17;;;;;;;24.62;58.62;100239.81;5093089;28;20178;-65
2022/08/20 00:06:48;;;;;;;3.83;2.53;;;;;;;24.61;58.81;100252.59;5092131;28;20170;-65
2022/08/20 00:09:14;;;;;;;2.83;2.13;;;;;;;24.58;59.06;100241.06;5091426;28;20197;-64
2022/08/20 00:11:39;;;;;;;3.53;2.20;;;;;;;24.58;58.86;100244.78;5091050;28;20697;-64
2022/08/20 00:14:05;;;;;;;2.70;2.10;;;;;;;24.56;58.99;100243.53;5091315;28;20189;-64
2022/08/20 00:16:32;;;;;;;3.10;2.57;;;;;;;24.54;58.96;100248.91;5086615;28;20765;-64
2022/08/20 00:18:59;;;;;;;3.30;2.40;;;;;;;24.58;59.17;100244.78;5074684;28;20178;-64
2022/08/20 00:21:24;;;;;;;3.50;2.67;;;;;;;24.57;58.81;100240.22;5088706;28;20424;-64
2022/08/20 00:23:50;;;;;;;4.40;2.73;;;;;;;24.50;59.04;100243.19;5092815;28;20428;-64
2022/08/20 00:26:16;;;;;;;3.47;2.70;;;;;;;24.57;58.95;100242.28;5092722;28;20174;-64
2022/08/20 00:28:42;;;;;;;3.70;2.43;;;;;;;24.50;59.23;100248.13;5087787;28;20695;-64
2022/08/20 00:31:09;;;;;;;3.50;2.53;;;;;;;24.56;59.15;100247.25;5092483;28;20182;-64
2022/08/20 00:33:34;;;;;;;4.40;2.60;;;;;;;24.58;59.13;100253.44;5092654;28;20178;-64
2022/08/20 00:36:05;;;;;;;4.50;2.80;;;;;;;24.58;59.22;100239.00;5092474;28;20455;-64
2022/08/20 00:38:31;;;;;;;4.23;3.20;;;;;;;24.44;59.99;100241.94;5092665;28;20170;-64
2022/08/20 00:40:58;;;;;;;5.97;3.33;;;;;;;24.46;59.75;100244.44;5091899;28;20416;-64
2022/08/20 00:43:44;;;;;;;4.97;3.50;;;;;;;24.44;59.98;100252.69;5091355;28;20424;-64
2022/08/20 00:46:19;;;;;;;4.60;3.23;;;;;;;24.48;59.92;100245.63;5090519;28;20447;-64
2022/08/20 00:48:47;;;;;;;6.20;3.97;;;;;;;24.53;59.82;100242.31;5091873;28;20416;-64
2022/08/20 00:51:15;;;;;;;4.37;3.90;;;;;;;24.55;59.61;100251.38;5091763;28;20417;-64
2022/08/20 00:53:41;;;;;;;4.80;3.87;;;;;;;24.54;59.56;100249.72;5091808;28;20582;-64
2022/08/20 00:56:07;;;;;;;4.93;3.93;;;;;;;24.53;59.81;100248.09;5090340;28;20464;-64
2022/08/20 00:58:32;;;;;;;6.70;4.40;;;;;;;24.54;59.93;100255.50;5092037;28;20178;-64
2022/08/20 01:00:58;;;;;;;5.50;4.27;;;;;;;24.55;59.66;100254.28;5090798;28;20178;-64
2022/08/20 01:03:24;;;;;;;6.53;4.23;;;;;;;24.45;60.25;100258.06;5074124;28;20516;-64
2022/08/20 01:05:49;;;;;;;5.47;4.23;;;;;;;24.44;60.10;100259.28;5092005;28;20583;-64
2022/08/20 01:08:17;;;;;;;6.97;4.50;;;;;;;24.48;59.97;100262.16;5091760;28;20550;-64
2022/08/20 01:10:47;;;;;;;5.37;4.87;;;;;;;24.53;60.09;100270.38;5090254;28;20602;-64
2022/08/20 01:13:16;;;;;;;5.40;4.63;;;;;;;24.54;60.20;100266.25;5090468;28;20425;-64
2022/08/20 01:15:43;;;;;;;7.87;4.30;;;;;;;24.50;60.09;100263.38;5091614;28;20471;-64
2022/08/20 01:18:11;;;;;;;6.00;4.50;;;;;;;24.53;60.22;100264.59;5090544;28;20423;-65
2022/08/20 01:20:47;;;;;;;7.00;4.73;;;;;;;24.42;60.53;100270.44;5090333;28;20424;-65
2022/08/20 01:23:26;;;;;;;6.10;4.47;;;;;;;24.46;60.38;100271.22;5074741;28;20427;-65
2022/08/20 01:26:04;;;;;;;6.33;5.67;;;;;;;24.39;60.87;100273.34;5091563;28;20677;-65
2022/08/20 01:28:36;;;;;;;6.43;5.13;;;;;;;24.46;60.32;100270.41;5091839;28;20417;-65
2022/08/20 01:31:03;;;;;;;7.03;5.43;;;;;;;24.48;60.28;100274.50;5091488;28;20423;-65
2022/08/20 01:33:29;;;;;;;8.23;5.37;;;;;;;24.48;60.20;100268.72;5091477;28;20421;-65
2022/08/20 01:35:54;;;;;;;8.77;5.90;;;;;;;24.44;60.71;100276.59;5091357;28;20467;-65
2022/08/20 01:38:20;;;;;;;8.13;5.57;;;;;;;24.46;60.44;100271.22;5091729;28;20178;-65
2022/08/20 01:41:15;;;;;;;7.10;5.73;;;;;;;24.47;60.78;100269.16;5091264;28;20181;-65
2022/08/20 01:43:41;;;;;;;8.10;5.93;;;;;;;24.49;60.44;100273.25;5089424;28;20174;-65
2022/08/20 01:46:08;;;;;;;6.57;5.87;;;;;;;24.50;60.07;100277.81;5079647;28;20413;-65
2022/08/20 01:48:34;;;;;;;10.30;6.47;;;;;;;24.52;60.42;100271.59;5068832;28;20179;-65
2022/08/20 01:51:10;;;;;;;8.40;5.63;;;;;;;24.52;60.35;100275.31;5080848;28;20447;-65
2022/08/20 01:53:37;;;;;;;8.40;6.13;;;;;;;24.44;60.54;100281.56;5072413;28;20182;-65
2022/08/20 01:56:09;;;;;;;6.33;5.43;;;;;;;24.45;60.66;100281.16;5089856;28;20508;-65
2022/08/20 01:58:38;;;;;;;6.53;5.80;;;;;;;24.50;60.51;100282.75;5090559;28;20531;-65
2022/08/20 02:01:04;;;;;;;8.80;6.10;;;;;;;24.40;60.76;100284.47;5072993;28;20519;-65
2022/08/20 02:03:29;;;;;;;7.87;6.03;;;;;;;24.30;61.40;100296.06;5091075;28;20412;-65
2022/08/20 02:05:57;;;;;;;9.73;6.93;;;;;;;24.36;60.96;100283.66;5091128;28;20241;-65
2022/08/20 02:08:23;;;;;;;8.40;6.17;;;;;;;24.45;60.79;100286.09;5091085;28;20232;-65
2022/08/20 02:10:48;;;;;;;10.27;6.30;;;;;;;24.49;60.36;100292.66;5090881;28;20444;-65
2022/08/20 02:13:14;;;;;;;8.87;6.60;;;;;;;24.45;60.51;100298.47;5090213;28;20201;-65
2022/08/20 02:15:39;;;;;;;8.43;6.23;;;;;;;24.47;60.46;100295.97;5090909;28;20205;-65
2022/08/20 02:18:07;;;;;;;10.03;6.63;;;;;;;24.51;60.45;100304.59;5090985;28;20174;-65
2022/08/20 02:20:32;;;;;;;7.47;6.27;;;;;;;24.52;60.39;100298.41;5090915;28;20541;-64
2022/08/20 02:22:58;;;;;;;9.40;6.70;;;;;;;24.54;60.23;100300.88;5087834;28;20519;-64
2022/08/20 02:25:25;;;;;;;9.70;5.97;;;;;;;24.55;59.81;100309.13;5085772;28;20167;-64
2022/08/20 02:27:51;;;;;;;7.40;5.70;;;;;;;24.54;60.50;100307.44;5088586;28;20182;-65
2022/08/20 02:30:19;;;;;;;9.90;6.77;;;;;;;24.55;60.01;100303.34;5090183;28;20416;-65
2022/08/20 02:32:45;;;;;;;7.80;6.53;;;;;;;24.53;59.95;100305.81;5086788;28;20186;-65
2022/08/20 02:35:12;;;;;;;12.50;6.20;;;;;;;24.53;60.26;100305.00;5090162;28;20456;-65
2022/08/20 02:37:38;;;;;;;9.23;6.20;;;;;;;24.54;59.84;100306.66;5089906;28;20175;-65
2022/08/20 02:40:06;;;;;;;7.43;6.53;;;;;;;24.53;60.04;100297.16;5090146;28;20405;-65
2022/08/20 02:42:31;;;;;;;10.27;6.60;;;;;;;24.53;59.85;100297.16;5090292;28;20477;-65
2022/08/20 02:44:57;;;;;;;9.13;6.17;;;;;;;24.54;59.95;100295.09;5090852;28;20404;-65
2022/08/20 02:47:22;;;;;;;8.70;6.37;;;;;;;24.46;60.22;100291.44;5071167;28;20172;-65
2022/08/20 02:49:48;;;;;;;6.53;5.83;;;;;;;24.49;60.17;100286.88;5071293;28;20198;-65
2022/08/20 02:52:13;;;;;;;7.70;6.20;;;;;;;24.51;60.41;100287.28;5090581;28;20187;-65
2022/08/20 02:54:39;;;;;;;7.43;6.50;;;;;;;24.50;60.22;100289.34;5090452;28;20174;-65
2022/08/20 02:57:04;;;;;;;8.30;5.90;;;;;;;24.48;60.47;100283.16;5090493;28;20224;-65
2022/08/20 02:59:30;;;;;;;8.80;6.10;;;;;;;24.47;60.51;100281.53;5090658;28;20249;-65
2022/08/20 03:01:55;;;;;;;6.93;5.80;;;;;;;24.47;60.74;100284.41;5090476;28;20220;-65
2022/08/20 03:04:21;;;;;;;8.67;6.63;;;;;;;24.44;60.70;100282.34;5090773;28;20163;-65
2022/08/20 03:06:46;;;;;;;7.63;6.53;;;;;;;24.46;60.77;100276.16;5091597;28;20658;-65
2022/08/20 03:09:12;;;;;;;10.00;5.90;;;;;;;24.43;60.79;100280.72;5094219;28;20547;-65
2022/08/20 03:11:38;;;;;;;8.17;5.90;;;;;;;24.43;60.78;100274.94;5093804;28;20225;-64
2022/08/20 03:14:05;;;;;;;7.03;5.70;;;;;;;24.44;60.98;100278.66;5094093;28;20178;-64
2022/08/20 03:16:30;;;;;;;10.63;6.40;;;;;;;24.44;60.53;100282.34;5092832;28;20982;-64
2022/08/20 03:18:56;;;;;;;9.53;5.57;;;;;;;24.45;60.68;100278.25;5094101;28;20478;-64
2022/08/20 03:21:21;;;;;;;6.93;5.77;;;;;;;24.44;60.82;100279.47;5093971;28;20204;-64
2022/08/20 03:23:47;;;;;;;6.87;5.80;;;;;;;24.45;60.40;100281.16;5093973;28;20174;-64
2022/08/20 03:26:12;;;;;;;6.33;5.40;;;;;;;24.48;60.05;100285.25;5093796;28;20220;-64
2022/08/20 03:28:38;;;;;;;7.70;6.07;;;;;;;24.49;60.23;100284.00;5093775;28;20189;-64
2022/08/20 03:31:03;;;;;;;8.80;6.40;;;;;;;24.48;60.26;100288.94;5092461;28;20170;-64
2022/08/20 03:33:30;;;;;;;7.93;5.83;;;;;;;24.49;60.07;100284.81;5093935;28;20179;-64
2022/08/20 03:35:56;;;;;;;8.40;6.03;;;;;;;24.50;59.95;100289.34;5092309;28;20206;-64
2022/08/20 03:38:22;;;;;;;7.77;5.80;;;;;;;24.49;60.40;100281.13;5093750;28;20413;-64
2022/08/20 03:40:47;;;;;;;7.27;5.97;;;;;;;24.49;60.30;100275.34;5093772;28;20424;-64
2022/08/20 03:43:13;;;;;;;9.37;6.20;;;;;;;24.48;60.20;100277.41;5093590;28;20435;-64
2022/08/20 03:45:39;;;;;;;14.13;6.70;;;;;;;24.47;60.32;100272.88;5088470;28;20526;-64
2022/08/20 03:48:06;;;;;;;9.23;6.30;;;;;;;24.48;60.09;100274.50;5073285;28;20828;-64
2022/08/20 03:50:32;;;;;;;7.30;6.50;;;;;;;24.49;60.34;100281.91;5080056;28;20475;-64
2022/08/20 03:52:58;;;;;;;8.60;6.20;;;;;;;24.48;60.24;100277.41;5093365;28;20507;-64
2022/08/20 03:55:23;;;;;;;8.13;5.97;;;;;;;24.48;60.22;100277.41;5093456;28;20312;-64
2022/08/20 03:57:54;;;;;;;8.37;6.60;;;;;;;24.46;60.21;100282.78;5093362;28;20416;-64
2022/08/20 04:00:22;;;;;;;7.97;6.47;;;;;;;24.46;60.84;100281.94;5093145;28;20171;-64
2022/08/20 04:02:48;;;;;;;8.13;6.00;;;;;;;24.45;60.57;100288.97;5093116;28;20416;-64
2022/08/20 04:05:13;;;;;;;10.93;7.00;;;;;;;24.45;60.67;100283.19;5093155;28;20413;-64
2022/08/20 04:07:39;;;;;;;12.17;6.13;;;;;;;24.38;60.95;100286.94;5091679;28;20181;-65
2022/08/20 04:10:08;;;;;;;6.80;6.10;;;;;;;24.39;61.04;100284.88;5093009;28;20277;-65
2022/08/20 04:12:33;;;;;;;7.70;6.40;;;;;;;24.38;61.10;100295.59;5092626;28;20265;-65
2022/08/20 04:14:59;;;;;;;6.63;5.03;;;;;;;24.37;61.00;100296.84;5092988;28;20464;-65
2022/08/20 04:17:26;;;;;;;8.77;5.90;;;;;;;24.36;60.82;100303.88;5086453;28;20561;-65
2022/08/20 04:19:51;;;;;;;8.43;6.30;;;;;;;24.36;61.32;100303.88;5090013;28;20427;-65
2022/08/20 04:22:16;;;;;;;9.83;6.77;;;;;;;24.37;61.08;100296.00;5092521;28;20417;-65
2022/08/20 04:24:42;;;;;;;6.70;5.83;;;;;;;24.39;60.95;100307.97;5092723;28;20811;-65
2022/08/20 04:27:08;;;;;;;8.23;5.80;;;;;;;24.39;60.83;100305.09;5090499;28;20633;-65
2022/08/20 04:29:35;;;;;;;10.63;6.13;;;;;;;24.40;61.28;100295.19;5092657;28;20210;-65
2022/08/20 04:32:01;;;;;;;10.37;6.20;;;;;;;24.38;61.03;100309.22;5092796;28;20420;-65
2022/08/20 04:34:28;;;;;;;9.67;6.70;;;;;;;24.37;61.07;100313.31;5074690;28;20412;-65
2022/08/20 04:36:53;;;;;;;7.60;6.30;;;;;;;24.35;61.54;100316.66;5091202;28;20537;-65
2022/08/20 04:39:18;;;;;;;7.40;6.00;;;;;;;24.34;61.47;100315.00;5092457;28;20417;-65
2022/08/20 04:41:44;;;;;;;15.93;7.30;;;;;;;24.34;61.30;100317.88;5092528;28;20185;-65
2022/08/20 04:44:10;;;;;;;8.43;7.13;;;;;;;24.34;61.52;100320.75;5092269;28;20167;-65
2022/08/20 04:46:36;;;;;;;7.60;6.77;;;;;;;24.32;61.44;100316.66;5092358;28;20837;-65
2022/08/20 04:49:02;;;;;;;9.53;6.50;;;;;;;24.33;61.29;100315.44;5092580;28;20424;-65
2022/08/20 04:51:28;;;;;;;8.90;6.87;;;;;;;24.32;61.68;100320.38;5090731;28;20444;-65
2022/08/20 04:53:55;;;;;;;9.20;6.90;;;;;;;24.33;61.44;100322.00;5091957;28;20778;-65
2022/08/20 04:56:29;;;;;;;9.63;6.30;;;;;;;24.32;61.62;100320.38;5091901;28;20209;-65
2022/08/20 04:58:55;;;;;;;8.33;6.63;;;;;;;24.31;61.68;100307.19;5092205;28;20478;-65
2022/08/20 05:01:22;;;;;;;8.03;6.60;;;;;;;24.33;61.89;100306.78;5092104;28;20412;-65
2022/08/20 05:03:48;;;;;;;8.00;7.03;;;;;;;24.32;61.68;100313.75;5091928;28;20416;-65
2022/08/20 05:06:14;;;;;;;8.37;6.53;;;;;;;24.32;61.71;100311.72;5090697;28;20430;-65
2022/08/20 05:08:41;;;;;;;9.57;6.90;;;;;;;24.31;62.01;100321.63;5091997;28;20577;-65
2022/08/20 05:11:08;;;;;;;7.40;6.63;;;;;;;24.31;61.86;100315.84;5091503;28;20476;-65
2022/08/20 05:13:33;;;;;;;9.97;6.70;;;;;;;24.32;61.92;100322.44;5089750;28;20412;-65
2022/08/20 05:16:00;;;;;;;8.10;6.50;;;;;;;24.32;62.19;100325.31;5090892;28;20452;-65
2022/08/20 05:18:26;;;;;;;9.30;6.73;;;;;;;24.31;62.18;100321.63;5091001;28;20582;-65
2022/08/20 05:20:52;;;;;;;7.37;6.53;;;;;;;24.33;61.96;100330.66;5089441;28;20427;-65
2022/08/20 05:23:18;;;;;;;9.43;6.60;;;;;;;24.32;61.94;100334.81;5090893;28;20178;-65
2022/08/20 05:25:46;;;;;;;10.90;7.40;;;;;;;24.32;62.27;100331.91;5091184;28;20174;-65
2022/08/20 05:28:16;;;;;;;7.90;7.10;;;;;;;24.32;61.99;100334.81;5091451;28;20515;-65
2022/08/20 05:30:44;;;;;;;9.77;6.97;;;;;;;24.32;62.10;100334.81;5091228;28;20930;-65
2022/08/20 05:33:10;;;;;;;9.00;7.03;;;;;;;24.33;62.01;100335.63;5091579;28;20836;-65
2022/08/20 05:35:37;;;;;;;10.50;7.10;;;;;;;24.32;62.37;100340.56;5091448;28;20490;-65
2022/08/20 05:38:06;;;;;;;7.93;6.23;;;;;;;24.31;62.41;100338.94;5091493;28;20201;-65
2022/08/20 05:40:32;;;;;;;9.47;6.80;;;;;;;24.31;62.55;100341.81;5091451;28;20444;-65
2022/08/20 05:42:57;;;;;;;7.27;6.30;;;;;;;24.32;62.70;100337.69;5091401;28;20408;-65
2022/08/20 05:45:23;;;;;;;8.73;6.80;;;;;;;24.24;62.91;100338.16;5088587;28;20170;-65
2022/08/20 05:47:48;;;;;;;10.53;6.60;;;;;;;24.09;63.20;100345.22;5070297;28;20228;-65
2022/08/20 05:50:15;;;;;;;9.50;6.80;;;;;;;24.20;63.35;100343.09;5074363;28;20181;-65
2022/08/20 05:52:40;;;;;;;10.50;6.67;;;;;;;24.26;62.80;100347.19;5089181;28;20174;-65
2022/08/20 05:55:08;;;;;;;9.03;6.90;;;;;;;24.15;63.39;100353.03;5090106;28;20986;-65
2022/08/20 05:57:33;;;;;;;8.53;6.30;;;;;;;24.05;63.77;100347.28;5090272;28;20170;-65
2022/08/20 06:00:01;;;;;;;8.00;5.80;;;;;;;24.12;63.41;100345.19;5089403;28;20424;-65
2022/08/20 06:05:10;;;;;;;7.17;5.33;;;;;;;24.20;63.34;100348.88;5091101;28;20423;-65
2022/08/20 06:07:37;;;;;;;6.63;5.37;;;;;;;24.17;63.37;100350.53;5089827;28;20416;-65
2022/08/20 06:10:03;;;;;;;6.80;4.80;;;;;;;24.18;63.45;100357.13;5089603;28;20220;-65
2022/08/20 06:12:28;;;;;;;6.27;4.67;;;;;;;24.13;63.62;100346.84;5090794;28;20464;-65
2022/08/20 06:14:54;;;;;;;6.07;4.13;;;;;;;24.17;63.49;100358.34;5090666;28;20240;-65
2022/08/20 06:17:20;;;;;;;6.67;4.17;;;;;;;24.03;64.43;100353.47;5090899;28;20178;-65
2022/08/20 06:19:46;;;;;;;5.77;4.50;;;;;;;24.14;63.69;100356.31;5090686;28;20224;-65
2022/08/20 06:22:11;;;;;;;7.63;3.57;;;;;;;24.19;63.33;100362.47;5088633;28;20182;-65
2022/08/20 06:24:37;;;;;;;5.70;3.63;;;;;;;24.22;63.25;100355.03;5076454;28;20203;-65
2022/08/20 06:27:03;;;;;;;6.00;3.30;;;;;;;24.24;63.47;100355.47;5070733;28;20933;-65
2022/08/20 06:29:29;;;;;;;13.57;4.20;;;;;;;24.24;63.18;100355.47;5089827;28;20269;-65
2022/08/20 06:31:55;;;;;;;6.10;3.57;;;;;;;24.20;63.21;100361.25;5074490;28;20425;-65
2022/08/20 06:34:21;;;;;;;5.47;3.10;;;;;;;24.22;63.56;100360.81;5069495;28;20537;-65
2022/08/20 06:36:46;;;;;;;3.80;2.57;;;;;;;24.23;63.42;100362.47;5070569;28;20568;-65
2022/08/20 06:39:14;;;;;;;4.50;3.07;;;;;;;24.22;63.65;100364.53;5070604;28;20179;-65
2022/08/20 06:41:40;;;;;;;4.50;3.00;;;;;;;24.20;63.34;100367.03;5071378;28;20205;-65
2022/08/20 06:44:06;;;;;;;5.33;3.20;;;;;;;24.21;63.57;100367.81;5074330;28;20468;-65
2022/08/20 06:46:33;;;;;;;4.83;2.60;;;;;;;24.20;63.77;100372.78;5086482;28;20239;-65
2022/08/20 06:48:58;;;;;;;4.80;2.60;;;;;;;24.21;63.79;100371.53;5092524;28;20411;-65
2022/08/20 06:51:24;;;;;;;3.43;2.37;;;;;;;24.20;63.75;100367.03;5093275;28;20744;-65
2022/08/20 06:53:49;;;;;;;7.07;3.40;;;;;;;24.19;63.46;100365.34;5093422;28;20178;-65
2022/08/20 06:56:15;;;;;;;4.43;2.90;;;;;;;24.22;63.40;100369.47;5093269;28;20549;-65
2022/08/20 06:58:41;;;;;;;3.67;2.40;;;;;;;24.17;63.94;100370.72;5093541;28;20174;-65
2022/08/20 07:01:06;;;;;;;4.10;2.20;;;;;;;24.07;64.13;100368.69;5084243;28;20527;-65
2022/08/20 07:03:32;;;;;;;3.63;2.40;;;;;;;23.97;64.69;100377.38;5072972;28;20221;-65
2022/08/20 07:05:58;;;;;;;3.67;1.90;;;;;;;24.08;64.03;100369.53;5073880;28;20557;-65
2022/08/20 07:08:23;;;;;;;4.03;2.33;;;;;;;24.16;63.55;100371.97;5073761;28;20186;-64
2022/08/20 07:10:49;;;;;;;3.60;2.17;;;;;;;24.17;63.55;100390.09;5073773;28;20433;-64
2022/08/20 07:13:15;;;;;;;3.37;2.30;;;;;;;24.12;63.57;100385.59;5074267;28;20159;-64
2022/08/20 07:15:41;;;;;;;4.60;2.60;;;;;;;24.14;63.47;100379.41;5072051;28;20512;-64
2022/08/20 07:18:06;;;;;;;6.03;2.40;;;;;;;24.17;63.38;100390.94;5073710;28;20206;-64
2022/08/20 07:20:33;;;;;;;3.70;1.97;;;;;;;24.18;63.42;100383.91;5080575;28;20483;-65
2022/08/20 07:22:59;;;;;;;3.20;2.13;;;;;;;24.11;63.81;100386.84;5093978;28;20182;-65
2022/08/20 07:25:25;;;;;;;6.50;2.20;;;;;;;24.08;63.79;100392.63;5092466;28;20416;-65
2022/08/20 07:27:50;;;;;;;3.00;2.10;;;;;;;24.12;63.90;100387.63;5093682;28;20183;-65
2022/08/20 07:33:06;;;;;;;3.60;1.90;;;;;;;23.78;64.99;100390.16;5081318;28;20178;-64
2022/08/20 07:35:31;;;;;;;6.10;2.50;;;;;;;23.89;64.93;100390.19;5078476;28;20944;-65
2022/08/20 07:37:57;;;;;;;3.23;2.13;;;;;;;23.85;65.12;100395.94;5073459;28;20513;-65
2022/08/20 07:40:26;;;;;;;2.70;1.70;;;;;;;23.99;64.23;100398.78;5077035;28;20266;-65
2022/08/20 07:42:52;;;;;;;3.10;2.10;;;;;;;24.06;64.30;100400.84;5081361;28;20182;-65
2022/08/20 07:45:19;;;;;;;2.70;1.97;;;;;;;24.10;64.36;100396.72;5094916;28;20447;-65
2022/08/20 07:47:45;;;;;;;2.77;1.90;;;;;;;24.03;65.36;100395.94;5093412;28;20419;-65
2022/08/20 07:50:12;;;;;;;4.33;2.13;;;;;;;24.26;66.26;100399.13;5093496;28;20507;-64
2022/08/20 07:52:38;;;;;;;8.27;3.60;;;;;;;24.44;66.93;100394.94;5091668;28;20170;-65
2022/08/20 07:55:08;;;;;;;5.30;2.30;;;;;;;24.42;66.04;100403.19;5091661;28;20420;-65
2022/08/20 07:57:34;;;;;;;2.80;1.70;;;;;;;24.47;66.41;100414.31;5092813;28;20155;-64
2022/08/20 07:59:59;;;;;;;4.87;2.20;;;;;;;24.31;66.24;100408.19;5090876;28;20474;-64
2022/08/20 08:02:25;;;;;;;4.40;1.60;;;;;;;24.36;65.60;100404.03;5092655;28;20170;-64
2022/08/20 08:04:51;;;;;;;3.70;1.97;;;;;;;24.45;65.33;100413.09;5074161;28;20219;-64
2022/08/20 08:07:16;;;;;;;2.80;1.47;;;;;;;24.22;66.00;100402.03;5091534;28;20921;-64
2022/08/20 08:09:43;;;;;;;2.80;1.70;;;;;;;24.31;65.81;100410.25;5091569;28;20167;-64
2022/08/20 08:12:10;;;;;;;2.53;1.77;;;;;;;24.36;64.86;100399.09;5091913;28;20221;-64
2022/08/20 08:14:36;;;;;;;3.30;2.00;;;;;;;24.38;64.54;100411.03;5087638;28;20428;-65
2022/08/20 08:17:02;;;;;;;2.50;1.70;;;;;;;24.24;65.58;100413.97;5069854;28;20469;-64
2022/08/20 08:19:28;;;;;;;2.20;1.50;;;;;;;24.28;64.89;100414.78;5072438;28;20175;-64
2022/08/20 08:21:56;;;;;;;3.73;2.33;;;;;;;24.40;66.23;100422.19;5075855;28;20490;-64
2022/08/20 08:24:21;;;;;;;3.17;2.43;;;;;;;24.37;65.74;100418.06;5072624;28;20417;-64
2022/08/20 08:26:48;;;;;;;3.80;2.50;;;;;;;24.26;65.82;100411.50;5072501;28;20440;-64
2022/08/20 08:29:15;;;;;;;11.67;2.70;;;;;;;24.32;65.06;100409.84;5072485;28;20167;-64
2022/08/20 08:31:41;;;;;;;3.60;3.07;;;;;;;24.23;65.84;100414.41;5075104;28;20422;-65
2022/08/20 08:34:07;;;;;;;3.17;2.67;;;;;;;24.33;65.25;100420.13;5075125;28;20421;-65
2022/08/20 08:36:32;;;;;;;3.40;2.70;;;;;;;24.42;65.27;100420.53;5090911;28;20202;-65
2022/08/20 08:38:57;;;;;;;5.00;2.23;;;;;;;24.39;65.11;100426.31;5091285;28;20199;-64
2022/08/20 08:41:30;;;;;;;3.87;2.30;;;;;;;24.47;65.40;100422.97;5090678;28;20183;-64
2022/08/20 08:44:11;;;;;;;3.23;2.13;;;;;;;24.38;65.82;100413.13;5090633;28;20166;-65
2022/08/20 08:46:41;;;;;;;3.27;2.20;;;;;;;24.36;65.80;100415.59;5059588;28;20833;-65
2022/08/20 08:49:08;;;;;;;3.70;2.30;;;;;;;24.33;66.25;100420.13;5068096;28;20977;-65
2022/08/20 08:51:39;;;;;;;4.50;2.00;;;;;;;24.30;66.21;100423.03;5084967;28;20417;-64
2022/08/20 08:54:06;;;;;;;4.20;2.10;;;;;;;24.42;66.44;100416.78;5072364;28;20480;-64
2022/08/20 08:56:31;;;;;;;2.63;1.63;;;;;;;24.31;65.40;100418.91;5091141;28;20447;-64
2022/08/20 08:58:59;;;;;;;2.43;1.90;;;;;;;24.24;65.20;100428.41;5090015;28;20435;-64
2022/08/20 09:01:25;;;;;;;3.07;1.90;;;;;;;24.29;65.03;100433.75;5073539;28;20708;-64
2022/08/20 09:03:50;;;;;;;3.90;2.10;;;;;;;24.33;64.74;100416.44;5091394;28;20416;-64
2022/08/20 09:06:22;;;;;;;2.57;1.80;;;;;;;24.29;64.90;100419.31;5073552;28;20167;-64
2022/08/20 09:08:52;;;;;;;3.10;1.97;;;;;;;24.34;64.33;100418.88;5091874;28;20661;-64
2022/08/20 09:11:19;;;;;;;2.60;1.80;;;;;;;24.35;63.98;100419.72;5090206;28;20500;-64
2022/08/20 09:13:44;;;;;;;5.50;2.10;;;;;;;24.32;64.25;100414.78;5073897;28;20417;-64
2022/08/20 09:16:11;;;;;;;2.40;1.70;;;;;;;24.29;64.05;100415.63;5083688;28;20449;-64
2022/08/20 09:18:36;;;;;;;3.90;2.23;;;;;;;24.36;64.33;100421.34;5071481;28;20194;-65
2022/08/20 09:21:02;;;;;;;4.70;2.10;;;;;;;24.42;63.92;100426.28;5082748;28;20423;-65
2022/08/20 09:23:27;;;;;;;5.17;2.30;;;;;;;24.45;63.65;100418.84;5091480;28;20610;-65
2022/08/20 09:25:52;;;;;;;7.00;2.23;;;;;;;24.46;63.30;100426.28;5091509;28;20182;-63
2022/08/20 09:28:18;;;;;;;3.20;2.37;;;;;;;24.42;63.09;100414.75;5091579;28;20171;-64
2022/08/20 09:30:43;;;;;;;6.90;2.80;;;;;;;24.45;62.78;100419.69;5091601;28;20174;-64
2022/08/20 09:33:09;;;;;;;5.03;2.00;;;;;;;24.50;62.06;100422.16;5091425;28;20167;-64
2022/08/20 09:35:34;;;;;;;3.87;1.97;;;;;;;24.50;61.58;100419.25;5090000;28;20700;-64
2022/08/20 09:38:00;;;;;;;3.70;1.67;;;;;;;24.47;61.14;100420.09;5089824;28;20185;-64
2022/08/20 09:40:26;;;;;;;2.13;1.70;;;;;;;24.30;60.87;100420.97;5090213;28;20182;-63
2022/08/20 09:42:52;;;;;;;3.00;1.80;;;;;;;24.31;60.23;100419.75;5076021;28;20178;-63
2022/08/20 09:45:17;;;;;;;2.80;1.97;;;;;;;24.28;59.93;100420.56;5073063;28;20182;-63
2022/08/20 09:47:43;;;;;;;3.07;1.97;;;;;;;24.34;59.28;100416.00;5091145;28;20450;-64
2022/08/20 09:50:08;;;;;;;4.93;2.20;;;;;;;24.25;59.27;100417.69;5090698;28;20182;-63
2022/08/20 09:52:36;;;;;;;4.97;2.10;;;;;;;24.30;58.91;100418.09;5088762;28;20582;-63
2022/08/20 09:55:25;;;;;;;2.30;1.73;;;;;;;24.20;59.20;100418.97;5089700;28;20220;-63
2022/08/20 09:57:50;;;;;;;2.73;1.80;;;;;;;24.30;59.15;100412.31;5071559;28;20437;-63
2022/08/20 10:00:16;;;;;;;3.90;2.10;;;;;;;24.30;59.25;100418.09;5082010;28;20443;-62
2022/08/20 10:02:41;;;;;;;3.03;1.90;;;;;;;24.30;59.13;100415.22;5090533;28;20193;-63
2022/08/20 10:05:07;;;;;;;3.13;1.93;;;;;;;24.15;59.88;100415.66;5090560;28;20182;-64
2022/08/20 10:07:33;;;;;;;3.83;2.07;;;;;;;24.22;59.84;100415.63;5090376;28;20299;-62
2022/08/20 10:09:59;;;;;;;2.87;1.97;;;;;;;24.24;60.07;100407.41;5090657;28;20968;-63
2022/08/20 10:12:25;;;;;;;3.40;2.07;;;;;;;24.34;59.70;100410.22;5089647;28;20254;-64
2022/08/20 10:14:50;;;;;;;3.07;2.03;;;;;;;24.28;60.04;100414.78;5081143;28;20917;-63
2022/08/20 10:17:16;;;;;;;3.00;1.70;;;;;;;24.32;60.01;100406.94;5089091;28;20203;-63
2022/08/20 10:19:41;;;;;;;3.60;1.87;;;;;;;24.38;59.81;100407.34;5080758;28;20234;-63
2022/08/20 10:22:06;;;;;;;3.40;1.63;;;;;;;24.33;59.78;100399.94;5093760;28;20190;-63
2022/08/20 10:24:32;;;;;;;5.70;1.83;;;;;;;24.35;60.00;100403.25;5076422;28;20187;-63
2022/08/20 10:26:58;;;;;;;2.60;1.60;;;;;;;24.28;60.22;100406.13;5073000;28;20213;-63
2022/08/20 10:29:24;;;;;;;3.17;1.70;;;;;;;24.27;60.26;100398.72;5079238;28;20225;-63
2022/08/20 10:31:50;;;;;;;2.80;1.70;;;;;;;24.35;59.65;100396.63;5087309;28;20289;-63
2022/08/20 10:34:15;;;;;;;2.43;1.33;;;;;;;24.31;59.82;100395.81;5089438;28;20416;-63
2022/08/20 10:36:41;;;;;;;4.50;1.77;;;;;;;24.22;60.37;100393.38;5092376;28;20707;-63
2022/08/20 10:39:07;;;;;;;2.50;1.30;;;;;;;24.30;60.15;100403.66;5084256;28;20282;-63
2022/08/20 10:41:32;;;;;;;6.03;1.73;;;;;;;24.37;59.69;100400.75;5083467;28;20429;-63
2022/08/20 10:43:57;;;;;;;7.60;1.20;;;;;;;24.32;59.58;100404.06;5088340;28;20243;-63
2022/08/20 10:46:24;;;;;;;4.00;1.17;;;;;;;24.25;59.78;100400.38;5087627;28;20186;-63
2022/08/20 10:48:50;;;;;;;2.20;1.10;;;;;;;24.31;59.27;100401.59;5076506;28;20187;-63
2022/08/20 10:51:15;;;;;;;3.53;1.17;;;;;;;24.38;59.15;100392.91;5094252;28;20477;-63
2022/08/20 10:53:41;;;;;;;5.13;1.30;;;;;;;24.41;58.95;100390.00;5094433;28;20243;-63
2022/08/20 10:56:06;;;;;;;3.80;1.03;;;;;;;24.43;58.95;100398.25;5094279;28;20210;-63
2022/08/20 10:58:32;;;;;;;2.00;1.00;;;;;;;24.36;58.99;100396.22;5094502;28;20174;-63
2022/08/20 11:00:57;;;;;;;1.90;1.00;;;;;;;24.32;59.09;100404.06;5090567;28;20588;-63
2022/08/20 11:03:23;;;;;;;1.50;0.80;;;;;;;24.43;59.29;100395.38;5090767;28;20182;-63
2022/08/20 11:05:48;;;;;;;2.60;1.00;;;;;;;24.45;58.83;100407.31;5079354;28;20618;-63
2022/08/20 11:08:13;;;;;;;3.90;1.23;;;;;;;24.47;58.67;100396.16;5082287;28;20552;-63
2022/08/20 11:10:39;;;;;;;2.97;1.30;;;;;;;24.50;59.10;100389.56;5072560;28;20195;-63
2022/08/20 11:13:05;;;;;;;1.70;0.90;;;;;;;24.53;59.15;100392.41;5074190;28;20301;-63
2022/08/20 11:15:32;;;;;;;4.40;1.00;;;;;;;24.59;58.70;100385.00;5076099;28;20195;-63
2022/08/20 11:17:57;;;;;;;2.20;1.10;;;;;;;24.60;58.75;100380.88;5077476;28;20930;-63
2022/08/20 11:20:26;;;;;;;2.10;1.00;;;;;;;24.60;59.12;100383.78;5083409;28;20421;-63
2022/08/20 11:22:52;;;;;;;1.70;1.10;;;;;;;24.58;58.91;100386.25;5082693;28;20178;-63
2022/08/20 11:25:18;;;;;;;2.47;1.00;;;;;;;24.58;58.05;100383.34;5086137;28;20432;-63
2022/08/20 11:27:45;;;;;;;2.23;0.90;;;;;;;24.58;57.84;100385.41;5082218;28;20420;-63